Time,TemperatureF,DewpointF,PressureIn,WindDirection,WindDirectionDegrees,WindSpeedMPH,WindSpeedGustMPH,Humidity,HourlyPrecipIn,Conditions,Clouds,dailyrainin,SoftwareType,DateUTC
2013-01-10 00:03:00,50.7,47.9,30.42,ESE,103,2.3,2.3,90,0.00,-DZ,FEW,0.01,WeatherDisplay:10.37,2013-01-10 06:03:00,
2013-01-10 00:08:00,50.8,48.0,30.42,ENE,65,4.6,4.6,90,0.01,-DZ,FEW,0.01,WeatherDisplay:10.37,2013-01-10 06:08:00,
2013-01-10 00:13:00,50.8,48.0,30.42,ESE,115,0.0,0.0,90,0.01,-DZ,FEW,0.01,WeatherDisplay:10.37,2013-01-10 06:13:00,
2013-01-10 00:18:00,50.7,47.9,30.42,ENE,69,3.5,3.5,90,0.01,-DZ,FEW,0.01,WeatherDisplay:10.37,2013-01-10 06:18:00,
2013-01-10 00:23:00,50.7,47.9,30.42,ENE,65,3.5,3.5,90,0.01,OVC,FEW,0.01,WeatherDisplay:10.37,2013-01-10 06:23:00,
2013-01-10 00:28:00,50.6,47.8,30.42,ENE,60,3.5,3.5,90,0.01,OVC,FEW,0.02,WeatherDisplay:10.37,2013-01-10 06:28:00,
2013-01-10 00:33:00,50.4,47.9,30.42,East,99,4.6,4.6,91,0.02,RA,FEW,0.02,WeatherDisplay:10.37,2013-01-10 06:33:00,
2013-01-10 00:38:00,50.1,47.6,30.42,NE,51,4.3,4.3,91,0.02,RA,FEW,0.02,WeatherDisplay:10.37,2013-01-10 06:38:00,
2013-01-10 00:43:00,50.2,47.7,30.42,ESE,104,5.8,5.8,91,0.03,RA,FEW,0.03,WeatherDisplay:10.37,2013-01-10 06:43:00,
2013-01-10 00:48:00,50.1,47.6,30.42,ENE,73,4.6,4.6,91,0.03,RA,FEW,0.03,WeatherDisplay:10.37,2013-01-10 06:48:00,
2013-01-10 00:53:00,50.1,47.6,30.42,NE,36,6.9,6.9,91,0.04,RA,FEW,0.04,WeatherDisplay:10.37,2013-01-10 06:53:00,
2013-01-10 00:58:00,50.0,47.5,30.42,ENE,75,5.8,5.8,91,0.04,RA,FEW,0.04,WeatherDisplay:10.37,2013-01-10 06:58:00,
2013-01-10 01:03:00,49.9,47.4,30.42,ENE,68,2.3,2.3,91,0.04,-RA,FEW,0.04,WeatherDisplay:10.37,2013-01-10 07:03:00,
2013-01-10 01:08:00,49.7,47.2,30.42,East,88,3.5,3.5,91,0.04,-RA,FEW,0.05,WeatherDisplay:10.37,2013-01-10 07:08:00,
2013-01-10 01:13:00,49.7,47.2,30.42,ENE,73,9.2,9.2,91,0.05,-RA,FEW,0.06,WeatherDisplay:10.37,2013-01-10 07:13:00,
2013-01-10 01:18:00,49.7,47.2,30.43,ENE,58,8.1,8.1,91,0.05,-RA,FEW,0.06,WeatherDisplay:10.37,2013-01-10 07:18:00,
2013-01-10 01:23:00,49.6,47.1,30.42,NE,45,5.8,5.8,91,0.06,-RA,FEW,0.07,WeatherDisplay:10.37,2013-01-10 07:23:00,
2013-01-10 01:28:00,49.5,47.0,30.42,ENE,57,9.2,9.2,91,0.07,-RA,FEW,0.08,WeatherDisplay:10.37,2013-01-10 07:28:00,
2013-01-10 01:33:00,49.5,46.7,30.41,NE,55,8.1,8.1,90,0.06,-RA,FEW,0.08,WeatherDisplay:10.37,2013-01-10 07:33:00,
2013-01-10 01:38:00,49.4,46.9,30.42,ENE,68,8.1,8.8,91,0.07,-RA,FEW,0.09,WeatherDisplay:10.37,2013-01-10 07:38:00,
2013-01-10 01:43:00,49.4,46.6,30.41,NNE,26,8.1,8.1,90,0.07,-RA,FEW,0.10,WeatherDisplay:10.37,2013-01-10 07:43:00,
2013-01-10 01:48:00,49.3,46.5,30.41,NE,49,8.1,8.1,90,0.07,-RA,FEW,0.10,WeatherDisplay:10.37,2013-01-10 07:48:00,
2013-01-10 01:53:00,49.1,46.6,30.41,NE,55,8.1,8.1,91,0.07,-RA,FEW,0.11,WeatherDisplay:10.37,2013-01-10 07:53:00,
2013-01-10 01:58:00,49.0,46.5,30.41,ENE,76,8.1,8.1,91,0.08,-RA,FEW,0.12,WeatherDisplay:10.37,2013-01-10 07:58:00,
2013-01-10 02:03:00,49.0,46.5,30.41,ENE,63,8.1,8.1,91,0.08, +DZ,FEW,0.12,WeatherDisplay:10.37,2013-01-10 08:03:00,
2013-01-10 02:08:00,48.8,46.6,30.41,SSE,149,5.8,5.8,92,0.08, +DZ,FEW,0.14,WeatherDisplay:10.37,2013-01-10 08:08:00,
2013-01-10 02:13:00,48.7,46.5,30.41,ENE,67,5.8,5.8,92,0.08, +DZ,FEW,0.14,WeatherDisplay:10.37,2013-01-10 08:13:00,
2013-01-10 02:19:00,48.7,46.5,30.41,ENE,78,9.2,9.2,92,0.10, +DZ,FEW,0.16,WeatherDisplay:10.37,2013-01-10 08:19:00,
2013-01-10 02:23:00,48.5,46.6,30.41,ENE,64,2.3,2.3,93,0.10,-RA,FEW,0.17,WeatherDisplay:10.37,2013-01-10 08:23:00,
2013-01-10 02:29:00,48.5,46.6,30.40,ENE,64,8.1,8.1,93,0.10,-RA,FEW,0.18,WeatherDisplay:10.37,2013-01-10 08:29:00,
2013-01-10 02:34:00,48.5,46.6,30.40,ENE,70,5.8,5.8,93,0.12,-RA,FEW,0.20,WeatherDisplay:10.37,2013-01-10 08:34:00,
2013-01-10 02:39:00,48.3,46.4,30.40,ENE,78,3.5,3.5,93,0.13,-RA,FEW,0.22,WeatherDisplay:10.37,2013-01-10 08:39:00,
2013-01-10 02:44:00,48.3,46.4,30.40,NE,56,2.3,2.3,93,0.13,-RA,FEW,0.23,WeatherDisplay:10.37,2013-01-10 08:44:00,
2013-01-10 02:49:00,48.3,46.7,30.40,NE,51,2.3,2.3,94,0.15,-RA,FEW,0.25,WeatherDisplay:10.37,2013-01-10 08:49:00,
2013-01-10 02:54:00,48.2,46.6,30.40,ESE,107,2.3,2.3,94,0.16,-RA,FEW,0.27,WeatherDisplay:10.37,2013-01-10 08:54:00,
2013-01-10 02:59:00,48.2,46.6,30.40,ENE,58,2.3,2.3,94,0.17,-RA,FEW,0.29,WeatherDisplay:10.37,2013-01-10 08:59:00,
2013-01-10 03:04:00,48.1,46.7,30.39,ENE,69,6.9,6.9,95,0.19,RA,FEW,0.31,WeatherDisplay:10.37,2013-01-10 09:04:00,
2013-01-10 03:09:00,47.9,46.5,30.38,East,84,3.5,3.5,95,0.18,RA,FEW,0.32,WeatherDisplay:10.37,2013-01-10 09:09:00,
2013-01-10 03:14:00,47.9,46.5,30.38,NE,53,5.8,5.8,95,0.18,RA,FEW,0.32,WeatherDisplay:10.37,2013-01-10 09:14:00,
2013-01-10 03:19:00,47.8,46.4,30.37,ENE,75,8.1,8.1,95,0.17,RA,FEW,0.33,WeatherDisplay:10.37,2013-01-10 09:19:00,
2013-01-10 11:15:00,57.3,56.2,30.24,ESE,109,8.1,8.1,96,0.00,OVC,FEW,0.42,WeatherDisplay:10.37,2013-01-10 17:15:00,
2013-01-10 11:20:00,57.5,56.4,30.24,ESE,115,5.8,5.8,96,0.00,OVC,FEW,0.42,WeatherDisplay:10.37,2013-01-10 17:20:00,
2013-01-10 11:25:00,57.6,56.5,30.23,ESE,119,2.3,2.3,96,0.00,SCT,FEW,0.42,WeatherDisplay:10.37,2013-01-10 17:25:00,
2013-01-10 11:30:00,57.8,56.7,30.22,ENE,64,2.3,2.3,96,0.00,SCT,FEW,0.42,WeatherDisplay:10.37,2013-01-10 17:30:00,
2013-01-10 11:35:00,58.0,56.9,30.22,SE,146,2.3,2.3,96,0.00,SCT,FEW,0.42,WeatherDisplay:10.37,2013-01-10 17:35:00,
2013-01-10 11:40:00,58.3,57.2,30.22,ESE,102,2.3,2.3,96,0.00,OVC,FEW,0.42,WeatherDisplay:10.37,2013-01-10 17:40:00,
2013-01-10 11:45:00,58.6,57.5,30.21,ESE,117,1.1,1.1,96,0.00,OVC,FEW,0.42,WeatherDisplay:10.37,2013-01-10 17:45:00,
2013-01-10 11:50:00,58.8,57.4,30.21,ENE,77,4.6,4.6,95,0.00,OVC,FEW,0.42,WeatherDisplay:10.37,2013-01-10 17:50:00,
2013-01-10 11:55:00,59.0,57.6,30.21,SSE,163,3.5,3.5,95,0.00,OVC,FEW,0.42,WeatherDisplay:10.37,2013-01-10 17:55:00,
2013-01-10 12:00:00,59.3,57.9,30.21,ESE,103,6.9,6.9,95,0.00,OVC,FEW,0.42,WeatherDisplay:10.37,2013-01-10 18:00:00,
2013-01-10 12:05:00,59.5,58.1,30.20,East,88,3.5,3.5,95,0.00,OVC,FEW,0.42,WeatherDisplay:10.37,2013-01-10 18:05:00,
2013-01-10 12:10:00,59.7,58.3,30.20,SSE,158,4.6,4.6,95,0.00,OVC,FEW,0.42,WeatherDisplay:10.37,2013-01-10 18:10:00,
2013-01-10 12:15:00,60.0,58.6,30.19,East,98,4.6,4.6,95,0.00,OVC,FEW,0.42,WeatherDisplay:10.37,2013-01-10 18:15:00,
2013-01-10 12:20:00,60.2,58.8,30.19,SE,134,3.5,3.5,95,0.00,OVC,FEW,0.42,WeatherDisplay:10.37,2013-01-10 18:20:00,
2013-01-10 12:25:00,60.5,58.8,30.19,SSE,155,3.5,3.5,94,0.00,OVC,FEW,0.42,WeatherDisplay:10.37,2013-01-10 18:25:00,
2013-01-10 12:30:00,60.8,59.1,30.18,SE,142,5.8,5.8,94,0.00,OVC,FEW,0.42,WeatherDisplay:10.37,2013-01-10 18:30:00,
2013-01-10 12:35:00,61.0,59.3,30.19,SSW,204,5.8,5.8,94,0.00,OVC,FEW,0.42,WeatherDisplay:10.37,2013-01-10 18:35:00,
2013-01-10 12:40:00,61.2,59.2,30.18,SE,139,3.5,3.5,93,0.00,OVC,FEW,0.42,WeatherDisplay:10.37,2013-01-10 18:40:00,
2013-01-10 12:45:00,61.4,59.4,30.18,SSE,155,2.3,2.3,93,0.00,OVC,FEW,0.42,WeatherDisplay:10.37,2013-01-10 18:45:00,
2013-01-10 12:50:00,61.6,59.6,30.18,SE,127,3.5,3.5,93,0.00,OVC,FEW,0.42,WeatherDisplay:10.37,2013-01-10 18:50:00,
2013-01-10 12:55:00,61.8,59.8,30.18,SSE,148,4.6,4.6,93,0.00,OVC,FEW,0.42,WeatherDisplay:10.37,2013-01-10 18:55:00,
2013-01-10 13:00:00,61.9,59.9,30.18,SE,139,3.5,3.5,93,0.00,OVC,FEW,0.42,WeatherDisplay:10.37,2013-01-10 19:00:00,
2013-01-10 13:05:00,62.0,60.0,30.17,SE,130,4.6,4.6,93,0.00,OVC,FEW,0.42,WeatherDisplay:10.37,2013-01-10 19:05:00,
2013-01-10 13:10:00,62.1,60.1,30.17,SE,124,5.8,5.8,93,0.00,OVC,FEW,0.42,WeatherDisplay:10.37,2013-01-10 19:10:00,
2013-01-10 13:15:00,62.2,60.2,30.17,SSW,196,3.5,3.5,93,0.00,OVC,FEW,0.42,WeatherDisplay:10.37,2013-01-10 19:15:00,
2013-01-10 13:20:00,62.3,60.2,30.17,ESE,122,2.3,2.3,93,0.00,OVC,FEW,0.42,WeatherDisplay:10.37,2013-01-10 19:20:00,
2013-01-10 13:25:00,62.4,60.3,30.17,ENE,76,3.5,3.5,93,0.00,OVC,FEW,0.42,WeatherDisplay:10.37,2013-01-10 19:25:00,
2013-01-10 13:30:00,62.5,60.4,30.17,East,79,3.5,3.5,93,0.00,OVC,FEW,0.42,WeatherDisplay:10.37,2013-01-10 19:30:00,
2013-01-10 13:35:00,62.6,60.5,30.17,SE,141,5.8,5.8,93,0.00,OVC,FEW,0.42,WeatherDisplay:10.37,2013-01-10 19:35:00,
2013-01-10 13:40:00,62.8,60.4,30.16,SE,138,5.8,5.8,92,0.00,OVC,FEW,0.42,WeatherDisplay:10.37,2013-01-10 19:40:00,
2013-01-10 13:45:00,62.9,60.5,30.16,SE,142,2.3,2.3,92,0.00,OVC,FEW,0.42,WeatherDisplay:10.37,2013-01-10 19:45:00,
2013-01-10 13:50:00,63.1,60.7,30.16,SE,133,2.3,2.3,92,0.00,OVC,FEW,0.42,WeatherDisplay:10.37,2013-01-10 19:50:00,
2013-01-10 13:55:00,63.2,60.8,30.16,SSE,147,6.9,6.9,92,0.00,OVC,FEW,0.42,WeatherDisplay:10.37,2013-01-10 19:55:00,
2013-01-10 14:00:00,63.3,60.9,30.16,SSE,150,5.8,5.8,92,0.00,OVC,FEW,0.42,WeatherDisplay:10.37,2013-01-10 20:00:00,
2013-01-10 14:05:00,63.4,60.7,30.16,East,81,10.4,10.4,91,0.00,OVC,FEW,0.42,WeatherDisplay:10.37,2013-01-10 20:05:00,
2013-01-10 14:10:00,63.5,60.8,30.16,SSW,196,8.1,8.1,91,0.00,OVC,FEW,0.42,WeatherDisplay:10.37,2013-01-10 20:10:00,
2013-01-10 14:15:00,63.6,60.9,30.16,SE,128,5.8,5.8,91,0.00,OVC,FEW,0.42,WeatherDisplay:10.37,2013-01-10 20:15:00,
2013-01-10 14:20:00,63.7,61.0,30.15,ESE,114,8.6,8.6,91,0.00,OVC,FEW,0.42,WeatherDisplay:10.37,2013-01-10 20:20:00,
2013-01-10 14:25:00,63.7,61.0,30.15,SE,128,8.1,8.1,91,0.00,OVC,FEW,0.42,WeatherDisplay:10.37,2013-01-10 20:25:00,
2013-01-10 14:31:00,63.8,61.1,30.15,ESE,109,3.5,3.5,91,0.00,OVC,FEW,0.42,WeatherDisplay:10.37,2013-01-10 20:31:00,
2013-01-10 14:36:00,63.8,61.1,30.15,SE,143,4.6,4.6,91,0.00,OVC,FEW,0.42,WeatherDisplay:10.37,2013-01-10 20:36:00,
2013-01-10 14:41:00,63.8,61.1,30.15,SE,133,9.2,9.2,91,0.00,OVC,FEW,0.42,WeatherDisplay:10.37,2013-01-10 20:41:00,
2013-01-10 14:46:00,63.9,61.2,30.15,SSE,148,8.1,8.1,91,0.00,OVC,FEW,0.42,WeatherDisplay:10.37,2013-01-10 20:46:00,
2013-01-10 14:51:00,63.9,61.2,30.15,SSE,165,5.8,5.8,91,0.00,OVC,FEW,0.42,WeatherDisplay:10.37,2013-01-10 20:51:00,
2013-01-10 14:56:00,63.8,61.1,30.14,East,85,4.6,4.6,91,0.00,OVC,FEW,0.42,WeatherDisplay:10.37,2013-01-10 20:56:00,
2013-01-10 15:01:00,63.8,61.1,30.14,SSW,209,6.9,6.9,91,0.00,OVC,FEW,0.42,WeatherDisplay:10.37,2013-01-10 21:01:00,
2013-01-10 15:06:00,63.8,61.1,30.14,SW,219,8.1,8.1,91,0.00,OVC,FEW,0.42,WeatherDisplay:10.37,2013-01-10 21:06:00,
2013-01-10 15:11:00,63.9,61.2,30.13,SE,132,5.8,5.8,91,0.00,OVC,FEW,0.42,WeatherDisplay:10.37,2013-01-10 21:11:00,
2013-01-10 15:16:00,64.0,61.3,30.13,NNE,27,3.5,3.5,91,0.00,OVC,FEW,0.42,WeatherDisplay:10.37,2013-01-10 21:16:00,
2013-01-10 15:21:00,64.1,61.4,30.12,SE,137,12.8,12.8,91,0.00,OVC,FEW,0.42,WeatherDisplay:10.37,2013-01-10 21:21:00,
2013-01-10 15:26:00,64.2,61.5,30.11,SE,128,8.1,8.1,91,0.00,OVC,FEW,0.42,WeatherDisplay:10.37,2013-01-10 21:26:00,
2013-01-10 15:31:00,64.2,61.5,30.11,East,99,6.9,6.9,91,0.00,OVC,FEW,0.42,WeatherDisplay:10.37,2013-01-10 21:31:00,
2013-01-10 15:36:00,64.3,61.6,30.10,SE,132,8.6,8.6,91,0.00,OVC,FEW,0.42,WeatherDisplay:10.37,2013-01-10 21:36:00,
2013-01-10 15:41:00,64.4,61.4,30.09,SE,144,3.5,3.5,90,0.00,OVC,FEW,0.42,WeatherDisplay:10.37,2013-01-10 21:41:00,
2013-01-10 15:47:00,64.5,61.5,30.09,SW,232,8.1,8.1,90,0.00,OVC,FEW,0.42,WeatherDisplay:10.37,2013-01-10 21:47:00,
2013-01-10 15:52:00,64.7,61.7,30.09,SSE,164,9.2,9.2,90,0.00,OVC,FEW,0.42,WeatherDisplay:10.37,2013-01-10 21:52:00,
2013-01-10 15:57:00,64.7,61.7,30.09,SE,143,9.2,9.2,90,0.00,OVC,FEW,0.42,WeatherDisplay:10.37,2013-01-10 21:57:00,
2013-01-10 16:02:00,64.9,61.9,30.09,ESE,118,5.8,5.8,90,0.00,OVC,FEW,0.42,WeatherDisplay:10.37,2013-01-10 22:02:00,
2013-01-10 16:07:00,64.9,61.6,30.08,West,267,9.2,9.2,89,0.00,OVC,FEW,0.42,WeatherDisplay:10.37,2013-01-10 22:07:00,
2013-01-10 16:12:00,64.9,61.6,30.08,SE,128,8.1,8.1,89,0.00,OVC,FEW,0.42,WeatherDisplay:10.37,2013-01-10 22:12:00,
2013-01-10 16:17:00,65.1,61.8,30.08,SE,140,8.1,8.1,89,0.00,OVC,FEW,0.42,WeatherDisplay:10.37,2013-01-10 22:17:00,
2013-01-10 16:22:00,65.1,61.8,30.08,ESE,109,8.1,8.1,89,0.00,OVC,FEW,0.42,WeatherDisplay:10.37,2013-01-10 22:22:00,
2013-01-10 16:27:00,65.1,61.8,30.08,East,80,8.1,8.1,89,0.00,OVC,FEW,0.42,WeatherDisplay:10.37,2013-01-10 22:27:00,
2013-01-10 16:32:00,65.2,61.9,30.08,SE,130,12.7,12.7,89,0.00,OVC,FEW,0.42,WeatherDisplay:10.37,2013-01-10 22:32:00,
2013-01-10 16:37:00,65.3,61.7,30.08,SSW,200,9.2,9.2,88,0.00,OVC,FEW,0.42,WeatherDisplay:10.37,2013-01-10 22:37:00,
2013-01-10 16:42:00,65.2,61.6,30.07,NNE,12,9.2,9.2,88,0.00,OVC,FEW,0.42,WeatherDisplay:10.37,2013-01-10 22:42:00,
2013-01-10 16:47:00,65.2,61.6,30.07,SE,135,6.9,6.9,88,0.00,OVC,FEW,0.42,WeatherDisplay:10.37,2013-01-10 22:47:00,
2013-01-10 16:52:00,65.2,61.6,30.07,SE,146,6.9,6.9,88,0.00,OVC,FEW,0.42,WeatherDisplay:10.37,2013-01-10 22:52:00,
2013-01-10 16:57:00,65.1,61.5,30.06,SE,144,8.1,8.1,88,0.00,OVC,FEW,0.42,WeatherDisplay:10.37,2013-01-10 22:57:00,
2013-01-10 17:02:00,65.1,61.5,30.06,SE,127,8.1,8.1,88,0.00,OVC,FEW,0.42,WeatherDisplay:10.37,2013-01-10 23:02:00,
2013-01-10 17:07:00,65.0,61.4,30.06,ESE,115,4.6,4.6,88,0.00,OVC,FEW,0.42,WeatherDisplay:10.37,2013-01-10 23:07:00,
2013-01-10 17:12:00,64.8,61.2,30.06,SSE,157,6.9,6.9,88,0.00,OVC,FEW,0.42,WeatherDisplay:10.37,2013-01-10 23:12:00,
2013-01-10 17:17:00,64.8,61.2,30.06,SE,144,11.5,11.5,88,0.00,OVC,FEW,0.42,WeatherDisplay:10.37,2013-01-10 23:17:00,
2013-01-10 17:22:00,64.9,61.3,30.05,SSW,204,21.9,21.9,88,0.00,OVC,FEW,0.42,WeatherDisplay:10.37,2013-01-10 23:22:00,
2013-01-10 17:27:00,65.2,61.6,30.05,ENE,59,8.1,8.1,88,0.00,OVC,FEW,0.42,WeatherDisplay:10.37,2013-01-10 23:27:00,
2013-01-10 17:32:00,65.4,61.8,30.04,SE,126,8.1,8.1,88,0.00,OVC,FEW,0.42,WeatherDisplay:10.37,2013-01-10 23:32:00,
2013-01-10 17:37:00,65.5,61.9,30.04,South,184,11.5,11.5,88,0.00,OVC,FEW,0.42,WeatherDisplay:10.37,2013-01-10 23:37:00,
2013-01-10 17:42:00,65.6,61.9,30.03,SSE,159,5.8,5.8,88,0.00,OVC,FEW,0.42,WeatherDisplay:10.37,2013-01-10 23:42:00,
2013-01-10 17:47:00,65.5,61.9,30.03,SE,133,13.8,13.8,88,0.00,OVC,FEW,0.42,WeatherDisplay:10.37,2013-01-10 23:47:00,
2013-01-10 17:53:00,65.5,61.9,30.02,SE,132,9.2,9.2,88,0.00,OVC,FEW,0.42,WeatherDisplay:10.37,2013-01-10 23:53:00,
2013-01-10 17:58:00,65.6,61.9,30.02,SSE,150,17.3,17.3,88,0.00,OVC,FEW,0.42,WeatherDisplay:10.37,2013-01-10 23:58:00,
2013-01-10 18:03:00,65.6,61.9,30.01,ESE,114,13.8,13.8,88,0.00,OVC,FEW,0.42,WeatherDisplay:10.37,2013-01-11 00:03:00,
2013-01-10 18:08:00,65.6,61.9,30.01,SSW,204,10.4,10.4,88,0.00,OVC,FEW,0.42,WeatherDisplay:10.37,2013-01-11 00:08:00,
2013-01-10 18:13:00,65.6,61.9,30.00,ESE,113,10.4,10.4,88,0.00,OVC,FEW,0.42,WeatherDisplay:10.37,2013-01-11 00:13:00,
2013-01-10 18:18:00,65.6,61.9,30.00,SE,144,9.2,9.2,88,0.00,OVC,FEW,0.42,WeatherDisplay:10.37,2013-01-11 00:18:00,
2013-01-10 18:23:00,65.7,62.0,30.00,SW,236,13.8,13.8,88,0.00,OVC,FEW,0.42,WeatherDisplay:10.37,2013-01-11 00:23:00,
2013-01-10 18:28:00,65.7,62.0,29.99,SSE,157,10.4,10.4,88,0.00,OVC,FEW,0.42,WeatherDisplay:10.37,2013-01-11 00:28:00,
2013-01-10 18:33:00,65.8,62.1,29.99,SSE,149,15.0,15.0,88,0.00,OVC,FEW,0.42,WeatherDisplay:10.37,2013-01-11 00:33:00,
2013-01-10 18:38:00,65.8,61.8,29.99,SE,137,9.2,9.2,87,0.00,OVC,FEW,0.42,WeatherDisplay:10.37,2013-01-11 00:38:00,
2013-01-10 18:43:00,65.9,61.9,29.98,SSW,203,16.1,16.1,87,0.00,OVC,FEW,0.42,WeatherDisplay:10.37,2013-01-11 00:43:00,
2013-01-10 18:48:00,65.9,61.9,29.98,SSE,160,15.0,15.0,87,0.00,OVC,FEW,0.42,WeatherDisplay:10.37,2013-01-11 00:48:00,
2013-01-10 18:53:00,65.9,61.9,29.98,West,271,13.8,13.8,87,0.00,OVC,FEW,0.42,WeatherDisplay:10.37,2013-01-11 00:53:00,
2013-01-10 18:58:00,65.9,61.9,29.99,SSE,148,8.1,8.1,87,0.00,OVC,FEW,0.42,WeatherDisplay:10.37,2013-01-11 00:58:00,
2013-01-10 19:03:00,65.8,61.8,29.99,SE,144,5.8,5.8,87,0.00,OVC,FEW,0.42,WeatherDisplay:10.37,2013-01-11 01:03:00,
2013-01-10 19:08:00,65.9,61.9,29.98,SE,141,11.5,11.5,87,0.00,OVC,FEW,0.42,WeatherDisplay:10.37,2013-01-11 01:08:00,
2013-01-10 19:13:00,65.8,61.8,29.99,SSE,158,10.7,10.7,87,0.00,OVC,FEW,0.42,WeatherDisplay:10.37,2013-01-11 01:13:00,
2013-01-10 19:18:00,65.9,61.9,29.99,SE,132,10.7,10.7,87,0.00,OVC,FEW,0.42,WeatherDisplay:10.37,2013-01-11 01:18:00,
2013-01-10 19:23:00,65.9,61.9,29.99,SE,144,10.4,10.4,87,0.00,OVC,FEW,0.42,WeatherDisplay:10.37,2013-01-11 01:23:00,
2013-01-10 19:28:00,65.9,61.6,29.99,SSE,163,8.6,8.6,86,0.00,OVC,FEW,0.42,WeatherDisplay:10.37,2013-01-11 01:28:00,
2013-01-10 19:33:00,65.8,61.5,29.98,SE,133,10.4,10.4,86,0.00,OVC,FEW,0.42,WeatherDisplay:10.37,2013-01-11 01:33:00,
2013-01-10 19:38:00,65.8,61.5,29.98,SSE,158,15.0,15.0,86,0.00,OVC,FEW,0.42,WeatherDisplay:10.37,2013-01-11 01:38:00,
2013-01-10 19:44:00,65.8,61.5,29.98,SSE,167,11.5,11.5,86,0.00,OVC,FEW,0.42,WeatherDisplay:10.37,2013-01-11 01:44:00,
2013-01-10 19:49:00,65.8,61.5,29.98,East,99,13.8,13.8,86,0.00,OVC,FEW,0.42,WeatherDisplay:10.37,2013-01-11 01:49:00,
2013-01-10 19:54:00,65.8,61.5,29.98,ESE,104,11.5,11.5,86,0.00,OVC,FEW,0.42,WeatherDisplay:10.37,2013-01-11 01:54:00,
2013-01-10 19:59:00,65.9,61.6,29.98,SSE,167,8.1,8.1,86,0.00,OVC,FEW,0.42,WeatherDisplay:10.37,2013-01-11 01:59:00,
2013-01-10 20:04:00,66.0,61.7,29.98,NE,39,12.7,12.7,86,0.00,OVC,FEW,0.42,WeatherDisplay:10.37,2013-01-11 02:04:00,
2013-01-10 20:09:00,66.0,61.7,29.98,SE,128,10.4,10.4,86,0.00,OVC,FEW,0.42,WeatherDisplay:10.37,2013-01-11 02:09:00,
2013-01-10 20:14:00,66.0,61.7,29.99,SSE,166,6.9,6.9,86,0.00,OVC,FEW,0.42,WeatherDisplay:10.37,2013-01-11 02:14:00,
2013-01-10 20:19:00,66.0,61.7,29.99,SSE,148,6.9,6.9,86,0.00,OVC,FEW,0.42,WeatherDisplay:10.37,2013-01-11 02:19:00,
2013-01-10 20:24:00,66.1,61.8,29.99,West,269,10.4,10.4,86,0.00,OVC,FEW,0.42,WeatherDisplay:10.37,2013-01-11 02:24:00,
2013-01-10 20:29:00,66.1,61.5,29.99,SE,146,8.1,8.1,85,0.00,OVC,FEW,0.42,WeatherDisplay:10.37,2013-01-11 02:29:00,
2013-01-10 20:34:00,66.3,61.7,29.99,SSE,156,10.4,10.4,85,0.00,OVC,FEW,0.42,WeatherDisplay:10.37,2013-01-11 02:34:00,
2013-01-10 20:39:00,66.2,61.6,29.99,South,176,8.1,8.1,85,0.00,OVC,FEW,0.42,WeatherDisplay:10.37,2013-01-11 02:39:00,
2013-01-10 20:44:00,66.2,61.6,29.99,SE,145,5.8,5.8,85,0.00,OVC,FEW,0.42,WeatherDisplay:10.37,2013-01-11 02:44:00,
2013-01-10 20:49:00,66.2,61.6,29.99,SSW,200,8.1,8.1,85,0.00,OVC,FEW,0.42,WeatherDisplay:10.37,2013-01-11 02:49:00,
2013-01-10 20:54:00,66.2,61.6,29.98,SE,135,2.3,2.3,85,0.00,OVC,FEW,0.42,WeatherDisplay:10.37,2013-01-11 02:54:00,
2013-01-10 20:59:00,66.0,61.4,29.98,ESE,121,4.6,4.6,85,0.00,OVC,FEW,0.42,WeatherDisplay:10.37,2013-01-11 02:59:00,
2013-01-10 21:04:00,65.9,61.6,29.98,SE,146,9.2,9.2,86,0.00,OVC,FEW,0.42,WeatherDisplay:10.37,2013-01-11 03:04:00,
2013-01-10 21:09:00,65.9,61.6,29.98,ESE,118,5.8,5.8,86,0.00,OVC,FEW,0.42,WeatherDisplay:10.37,2013-01-11 03:09:00,
2013-01-10 21:14:00,65.8,61.5,29.97,ESE,113,6.9,6.9,86,0.00,OVC,FEW,0.42,WeatherDisplay:10.37,2013-01-11 03:14:00,
2013-01-10 21:19:00,65.7,61.4,29.98,SE,142,4.6,4.6,86,0.00,OVC,FEW,0.42,WeatherDisplay:10.37,2013-01-11 03:19:00,
2013-01-10 21:24:00,65.6,61.6,29.98,SE,144,8.1,8.1,87,0.00,OVC,FEW,0.42,WeatherDisplay:10.37,2013-01-11 03:24:00,
2013-01-10 21:29:00,65.7,61.7,29.98,South,173,3.5,3.5,87,0.00,OVC,FEW,0.42,WeatherDisplay:10.37,2013-01-11 03:29:00,
2013-01-10 21:34:00,65.6,61.6,29.98,South,187,2.3,2.3,87,0.00,OVC,FEW,0.42,WeatherDisplay:10.37,2013-01-11 03:34:00,
2013-01-10 21:40:00,65.6,61.6,29.98,SSE,163,8.1,8.1,87,0.00,-DZ,FEW,0.42,WeatherDisplay:10.37,2013-01-11 03:40:00,
2013-01-10 21:45:00,65.7,61.4,29.98,South,184,4.6,4.6,86,0.00,-DZ,FEW,0.42,WeatherDisplay:10.37,2013-01-11 03:45:00,
2013-01-10 21:50:00,65.8,61.5,29.98,SE,142,8.1,8.1,86,0.00,-DZ,FEW,0.42,WeatherDisplay:10.37,2013-01-11 03:50:00,
2013-01-10 21:55:00,65.9,61.6,29.98,SSW,198,8.1,8.1,86,0.00,-DZ,FEW,0.42,WeatherDisplay:10.37,2013-01-11 03:55:00,
2013-01-10 22:00:00,65.9,61.3,29.97,SE,144,10.4,10.4,85,0.00,-DZ,FEW,0.42,WeatherDisplay:10.37,2013-01-11 04:00:00,
2013-01-10 22:05:00,66.2,61.6,29.97,East,86,6.9,6.9,85,0.00,-DZ,FEW,0.42,WeatherDisplay:10.37,2013-01-11 04:05:00,
2013-01-10 22:10:00,66.2,61.9,29.97,SSE,151,8.1,8.1,86,0.00,-DZ,FEW,0.42,WeatherDisplay:10.37,2013-01-11 04:10:00,
2013-01-10 22:15:00,66.1,61.5,29.97,SE,144,8.1,8.1,85,0.00,-DZ,FEW,0.42,WeatherDisplay:10.37,2013-01-11 04:15:00,
2013-01-10 22:20:00,66.1,61.5,29.96,SSE,153,3.5,3.5,85,0.00,-DZ,FEW,0.42,WeatherDisplay:10.37,2013-01-11 04:20:00,
2013-01-10 22:25:00,66.1,61.5,29.97,SW,219,6.9,6.9,85,0.00,-DZ,FEW,0.42,WeatherDisplay:10.37,2013-01-11 04:25:00,
2013-01-10 22:30:00,66.2,61.6,29.96,ESE,105,6.9,6.9,85,0.00,-DZ,FEW,0.42,WeatherDisplay:10.37,2013-01-11 04:30:00,
2013-01-10 22:35:00,66.2,61.6,29.96,SE,136,5.8,5.8,85,0.00,-DZ,FEW,0.42,WeatherDisplay:10.37,2013-01-11 04:35:00,
2013-01-10 22:40:00,66.4,61.8,29.95,SE,130,9.2,9.2,85,0.00,-DZ,FEW,0.42,WeatherDisplay:10.37,2013-01-11 04:40:00,
2013-01-10 22:45:00,66.3,61.7,29.95,SSE,167,13.8,13.8,85,0.00,-DZ,FEW,0.42,WeatherDisplay:10.37,2013-01-11 04:45:00,
2013-01-10 22:50:00,66.3,61.7,29.95,SE,144,5.4,5.4,85,0.00,-DZ,FEW,0.42,WeatherDisplay:10.37,2013-01-11 04:50:00,
2013-01-10 22:55:00,66.2,61.6,29.95,East,86,8.1,8.1,85,0.00,-DZ,FEW,0.42,WeatherDisplay:10.37,2013-01-11 04:55:00,
2013-01-10 23:01:00,65.9,61.6,29.95,SSE,161,10.4,10.4,86,0.00,-DZ,FEW,0.42,WeatherDisplay:10.37,2013-01-11 05:01:00,
2013-01-10 23:03:00,65.9,61.9,29.95,South,176,9.2,9.2,87,0.00,OVC,FEW,0.42,WeatherDisplay:10.37,2013-01-11 05:03:00,
2013-01-10 23:08:00,65.7,61.7,29.95,SE,138,8.1,8.1,87,0.00,OVC,FEW,0.42,WeatherDisplay:10.37,2013-01-11 05:08:00,
2013-01-10 23:13:00,65.5,61.9,29.94,ENE,76,4.6,4.6,88,0.00,OVC,FEW,0.42,WeatherDisplay:10.37,2013-01-11 05:13:00,
2013-01-10 23:18:00,65.2,61.9,29.94,SE,134,5.8,5.8,89,0.00,OVC,FEW,0.42,WeatherDisplay:10.37,2013-01-11 05:18:00,
2013-01-10 23:23:00,64.9,61.6,29.94,SSE,157,5.8,5.8,89,0.00,OVC,FEW,0.42,WeatherDisplay:10.37,2013-01-11 05:23:00,
2013-01-10 23:28:00,64.7,61.7,29.93,SSW,192,6.9,6.9,90,0.01,RA,FEW,0.43,WeatherDisplay:10.37,2013-01-11 05:28:00,
2013-01-10 23:33:00,64.5,61.5,29.93,SSE,152,6.9,6.9,90,0.01,RA,FEW,0.43,WeatherDisplay:10.37,2013-01-11 05:33:00,
2013-01-10 23:38:00,64.4,61.7,29.92,SE,132,4.6,4.6,91,0.01,-DZ,FEW,0.43,WeatherDisplay:10.37,2013-01-11 05:38:00,
2013-01-10 23:43:00,64.3,61.6,29.92,SSE,167,3.5,3.5,91,0.01,-DZ,FEW,0.43,WeatherDisplay:10.37,2013-01-11 05:43:00,
2013-01-10 23:48:00,64.3,61.6,29.92,SE,131,8.1,8.1,91,0.01,-DZ,FEW,0.43,WeatherDisplay:10.37,2013-01-11 05:48:00,
2013-01-10 23:53:00,64.3,61.6,29.91,ESE,120,8.1,8.1,91,0.01,-DZ,FEW,0.43,WeatherDisplay:10.37,2013-01-11 05:53:00,
2013-01-10 23:58:00,64.5,61.5,29.91,SSW,196,8.1,8.1,90,0.01,-DZ,FEW,0.43,WeatherDisplay:10.37,2013-01-11 05:58:00,